Time;durP1;ratioP1;P1;durP2;ratioP2;P2;SDS_P1;SDS_P2;PMS_P1;PMS_P2;Temp;Humidity;BMP_temperature;BMP_pressure;BME280_temperature;BME280_humidity;BME280_pressure;Samples;Min_cycle;Max_cycle;Signal;HPM_P1;HPM_P2
2022/04/25 00:00:37;;;;;;;11.35;7.80;;;5.20;99.90;;;5.90;100.00;98263.78;4999194;28;119759;-69
2022/04/25 00:03:06;;;;;;;12.82;8.25;;;5.10;99.90;;;5.81;100.00;98258.34;4984298;28;118923;-69
2022/04/25 00:05:34;;;;;;;12.40;8.23;;;5.10;99.90;;;5.71;100.00;98259.41;4997759;28;130524;-69
2022/04/25 00:08:02;;;;;;;13.20;9.32;;;5.00;99.90;;;5.67;100.00;98263.03;4998675;28;129416;-70
2022/04/25 00:10:31;;;;;;;14.38;8.40;;;5.00;99.90;;;5.63;100.00;98265.56;4998096;28;119666;-70
2022/04/25 00:13:00;;;;;;;13.68;9.38;;;5.00;99.90;;;5.60;100.00;98252.72;4999044;28;119362;-70
2022/04/25 00:15:29;;;;;;;12.80;8.73;;;5.00;99.90;;;5.62;100.00;98252.41;5000536;28;130249;-69
2022/04/25 00:17:57;;;;;;;13.48;9.02;;;5.00;99.90;;;5.62;100.00;98255.09;4999024;28;130128;-70
2022/04/25 00:20:26;;;;;;;12.43;8.18;;;5.00;99.90;;;5.69;100.00;98256.25;5000930;28;118357;-69
2022/04/25 00:22:54;;;;;;;11.93;7.97;;;5.00;99.90;;;5.81;100.00;98260.25;4997503;28;119466;-69
2022/04/25 00:25:22;;;;;;;12.23;8.23;;;5.10;99.90;;;5.74;100.00;98248.03;4981236;28;131247;-69
2022/04/25 00:27:51;;;;;;;11.23;8.23;;;5.20;99.90;;;5.80;100.00;98254.06;4979851;28;129402;-70
2022/04/25 00:30:21;;;;;;;12.35;8.45;;;5.20;99.90;;;5.90;100.00;98253.78;4987810;28;121975;-70
2022/04/25 00:32:49;;;;;;;11.40;8.23;;;5.30;99.90;;;6.02;100.00;98258.63;4998577;28;122014;-70
2022/04/25 00:35:18;;;;;;;12.60;9.13;;;5.40;99.90;;;6.15;100.00;98261.53;4998254;28;131030;-68
2022/04/25 00:37:46;;;;;;;12.75;8.57;;;5.40;99.90;;;6.26;100.00;98260.94;4998050;28;129498;-70
2022/04/25 00:40:16;;;;;;;12.85;9.32;;;5.50;99.90;;;6.35;100.00;98252.84;5017228;28;119806;-69
2022/04/25 00:42:45;;;;;;;13.40;9.10;;;5.60;99.90;;;6.34;100.00;98234.31;4998730;28;119838;-70
2022/04/25 00:45:15;;;;;;;12.27;8.32;;;5.60;99.90;;;6.10;100.00;98232.81;5016514;28;129508;-70
2022/04/25 00:47:46;;;;;;;11.13;8.45;;;5.60;99.90;;;5.75;100.00;98238.84;4998444;28;130226;-70
2022/04/25 00:50:15;;;;;;;11.63;8.57;;;5.50;99.90;;;5.61;100.00;98240.84;4998407;28;119572;-69
2022/04/25 00:52:44;;;;;;;14.32;8.88;;;5.40;99.90;;;5.71;100.00;98235.19;4998492;28;119356;-68
2022/04/25 00:55:13;;;;;;;12.77;8.98;;;5.40;99.90;;;5.91;100.00;98235.75;4996899;28;131234;-70
2022/04/25 00:57:42;;;;;;;13.32;9.18;;;5.50;99.90;;;6.08;100.00;98227.75;4997854;28;129534;-69
2022/04/25 01:00:14;;;;;;;12.32;8.68;;;5.60;99.90;;;6.12;100.00;98222.53;5016947;28;118586;-69
2022/04/25 01:02:44;;;;;;;14.30;9.07;;;5.60;99.90;;;6.21;100.00;98214.47;5000479;28;119357;-69
2022/04/25 01:05:12;;;;;;;12.52;9.00;;;5.60;99.90;;;6.21;100.00;98219.88;4999553;28;130064;-69
2022/04/25 01:07:41;;;;;;;13.15;9.13;;;5.60;99.90;;;6.18;100.00;98221.28;4997779;28;130277;-69
2022/04/25 01:10:11;;;;;;;12.98;9.15;;;5.50;99.90;;;6.16;100.00;98228.09;5016526;28;119685;-68
2022/04/25 01:12:40;;;;;;;13.32;9.48;;;5.50;99.90;;;6.24;100.00;98219.25;4998244;28;119353;-69
2022/04/25 01:15:11;;;;;;;15.27;9.75;;;5.60;99.90;;;6.22;100.00;98224.16;4999508;28;128670;-70
2022/04/25 01:17:40;;;;;;;13.05;9.10;;;5.60;99.90;;;6.33;100.00;98236.22;4999337;28;129150;-70
2022/04/25 01:20:11;;;;;;;12.90;8.70;;;5.70;99.90;;;6.42;100.00;98226.25;4998683;28;122567;-69
2022/04/25 01:22:45;;;;;;;14.40;10.02;;;5.70;99.90;;;6.53;100.00;98228.63;4999832;28;121746;-70
2022/04/25 01:28:02;;;;;;;13.85;9.48;;;5.80;99.90;;;6.52;100.00;98225.16;4997686;28;129515;-69
2022/04/25 01:30:32;;;;;;;13.38;9.77;;;5.90;99.90;;;6.59;100.00;98230.06;4983246;28;118476;-69
2022/04/25 01:33:00;;;;;;;13.02;9.13;;;5.90;99.90;;;6.69;100.00;98228.97;4999781;28;119549;-69
2022/04/25 01:35:29;;;;;;;14.07;9.45;;;6.00;99.90;;;6.76;100.00;98230.09;4997395;28;130717;-69
2022/04/25 01:37:57;;;;;;;13.05;9.02;;;6.00;99.90;;;6.82;100.00;98239.63;4996600;28;129233;-69
2022/04/25 01:40:27;;;;;;;13.13;9.60;;;6.10;99.90;;;6.88;100.00;98220.56;4997922;28;119791;-69
2022/04/25 01:42:56;;;;;;;14.60;9.57;;;6.10;99.90;;;6.92;100.00;98211.53;5001274;28;119844;-70
2022/04/25 01:45:25;;;;;;;14.20;9.63;;;6.10;99.90;;;6.96;100.00;98222.47;4990739;28;131048;-70
2022/04/25 01:47:53;;;;;;;12.57;9.05;;;6.20;99.90;;;6.99;100.00;98221.81;4980822;28;129924;-68
2022/04/25 01:50:22;;;;;;;15.27;9.63;;;6.20;99.90;;;7.00;100.00;98228.81;4981367;28;119553;-68
2022/04/25 01:52:50;;;;;;;14.90;10.60;;;6.10;99.90;;;6.96;100.00;98235.94;4981380;28;119291;-68
2022/04/25 01:55:19;;;;;;;13.25;9.60;;;6.10;99.90;;;7.01;100.00;98238.47;4982623;28;129609;-69
2022/04/25 01:57:49;;;;;;;14.73;10.63;;;6.20;99.90;;;7.05;100.00;98220.53;4999770;28;128695;-69
2022/04/25 02:00:17;;;;;;;13.85;10.00;;;6.20;99.90;;;6.96;100.00;98206.28;4999960;28;119143;-68
2022/04/25 02:02:46;;;;;;;13.35;9.52;;;6.20;99.90;;;6.76;100.00;98196.91;4983388;28;118679;-70
2022/04/25 02:05:14;;;;;;;12.02;9.38;;;6.10;99.90;;;6.57;100.00;98178.38;4979322;28;129923;-69
2022/04/25 02:07:43;;;;;;;13.35;9.13;;;6.00;99.90;;;6.51;100.00;98196.59;4980853;28;129181;-70
2022/04/25 02:10:11;;;;;;;14.57;10.02;;;5.90;99.90;;;6.56;100.00;98193.75;4979682;28;122246;-69
2022/04/25 02:12:39;;;;;;;15.88;9.90;;;5.80;99.90;;;6.57;100.00;98179.16;4982868;28;120626;-68
2022/04/25 02:15:13;;;;;;;13.00;9.32;;;5.80;99.90;;;6.49;100.00;98171.88;4981141;28;130441;-70
2022/04/25 02:17:44;;;;;;;13.77;9.63;;;5.80;99.90;;;6.47;100.00;98177.56;4980485;28;129868;-71
2022/04/25 02:20:13;;;;;;;11.75;8.60;;;5.70;99.90;;;6.51;100.00;98185.03;4980874;28;119721;-70
2022/04/25 02:22:43;;;;;;;11.35;8.40;;;5.70;99.90;;;6.31;100.00;98198.03;4982609;28;119166;-70
2022/04/25 02:25:11;;;;;;;14.32;9.65;;;5.70;99.90;;;6.24;100.00;98186.91;4980352;28;129461;-72
2022/04/25 02:27:40;;;;;;;13.68;9.82;;;5.70;99.90;;;5.94;100.00;98183.97;4980825;28;129434;-69
2022/04/25 02:30:12;;;;;;;14.43;10.00;;;5.60;99.90;;;6.03;100.00;98190.19;4980706;28;119998;-70
2022/04/25 02:32:40;;;;;;;14.05;10.32;;;5.60;99.90;;;6.09;100.00;98183.56;4983199;28;119374;-67
2022/04/25 02:35:09;;;;;;;15.32;10.68;;;5.60;99.90;;;6.24;100.00;98197.69;4979476;28;129939;-68
2022/04/25 02:37:38;;;;;;;16.67;11.50;;;5.70;99.90;;;6.29;100.00;98198.34;4980438;28;130139;-68
2022/04/25 02:40:09;;;;;;;19.75;11.98;;;5.70;99.90;;;6.38;100.00;98192.16;4980609;28;119974;-70
2022/04/25 02:42:38;;;;;;;18.25;11.25;;;5.80;99.90;;;6.34;100.00;98185.81;4980495;28;119843;-68
2022/04/25 02:45:11;;;;;;;16.70;11.32;;;5.80;99.90;;;6.28;100.00;98185.19;4997445;28;128659;-70
2022/04/25 02:47:41;;;;;;;17.55;10.63;;;5.80;99.90;;;6.41;100.00;98181.53;4978970;28;129437;-70
2022/04/25 02:50:11;;;;;;;16.75;11.25;;;5.90;99.90;;;6.41;100.00;98178.84;4979260;28;119573;-69
2022/04/25 02:52:40;;;;;;;17.73;11.10;;;5.90;99.90;;;6.55;100.00;98196.78;4979607;28;119313;-69
2022/04/25 02:55:09;;;;;;;18.60;12.25;;;5.90;99.90;;;6.61;100.00;98179.34;4978979;28;130221;-69
2022/04/25 02:57:38;;;;;;;16.23;11.57;;;5.90;99.90;;;6.70;100.00;98172.03;4978834;28;129290;-70
2022/04/25 03:00:08;;;;;;;15.13;10.68;;;6.00;99.90;;;6.76;100.00;98181.56;4989420;28;121906;-70
2022/04/25 03:02:36;;;;;;;18.50;11.95;;;6.00;99.90;;;6.83;100.00;98176.47;5001722;28;121677;-68
2022/04/25 03:05:07;;;;;;;16.30;11.20;;;6.10;99.90;;;6.88;100.00;98180.09;4997062;28;129868;-68
2022/04/25 03:07:35;;;;;;;16.83;11.90;;;6.10;99.90;;;6.92;100.00;98178.34;4998389;28;129390;-69
2022/04/25 03:10:04;;;;;;;16.30;11.05;;;6.10;99.90;;;6.99;100.00;98181.34;5017649;28;118386;-70
2022/04/25 03:12:38;;;;;;;16.30;11.48;;;6.20;99.90;;;7.01;100.00;98176.44;4999059;28;120494;-69
2022/04/25 03:15:09;;;;;;;17.40;11.73;;;6.20;99.90;;;7.02;100.00;98183.41;5000297;28;130225;-69
2022/04/25 03:17:38;;;;;;;14.23;10.68;;;6.20;99.90;;;7.08;100.00;98176.75;4998701;28;129820;-68
2022/04/25 03:20:10;;;;;;;15.38;11.20;;;6.30;99.90;;;7.15;100.00;98171.66;4998690;28;119491;-67
2022/04/25 03:22:38;;;;;;;15.25;11.25;;;6.30;99.90;;;7.20;100.00;98174.19;4998623;28;119197;-69
2022/04/25 03:25:08;;;;;;;15.13;10.48;;;6.30;99.90;;;7.14;100.00;98178.16;4996874;28;130218;-69
2022/04/25 03:27:36;;;;;;;17.80;12.25;;;6.30;99.90;;;7.22;100.00;98178.47;5017118;28;128274;-72
2022/04/25 03:30:06;;;;;;;15.15;10.05;;;6.30;99.90;;;7.26;100.00;98182.09;4998429;28;120110;-71
2022/04/25 03:32:35;;;;;;;15.90;10.52;;;6.40;99.90;;;7.29;100.00;98182.28;5000208;28;120153;-70
2022/04/25 03:35:03;;;;;;;15.95;11.43;;;6.40;99.90;;;7.36;100.00;98187.16;4997826;28;129993;-70
2022/04/25 03:37:35;;;;;;;14.60;10.55;;;6.40;99.90;;;7.44;100.00;98170.13;4997983;28;130093;-70
2022/04/25 03:40:05;;;;;;;15.07;10.60;;;6.50;99.90;;;7.50;100.00;98171.53;5000129;28;119016;-68
2022/04/25 03:42:34;;;;;;;16.77;11.52;;;6.50;99.90;;;7.54;100.00;98172.50;5001163;28;118965;-68
2022/04/25 03:45:02;;;;;;;14.68;10.68;;;6.60;99.90;;;7.61;100.00;98174.69;5001445;28;169727;-67
2022/04/25 03:47:32;;;;;;;13.07;9.82;;;6.60;99.90;;;7.65;100.00;98172.13;5006432;28;129383;-68
2022/04/25 03:50:01;;;;;;;15.75;10.90;;;6.60;99.90;;;7.66;100.00;98168.31;4998184;28;122774;-69
2022/04/25 03:52:30;;;;;;;13.50;10.27;;;6.70;99.90;;;7.68;100.00;98169.59;4999139;28;122295;-69
2022/04/25 03:57:46;;;;;;;14.07;9.73;;;6.70;99.90;;;7.51;100.00;98162.34;4998974;28;130362;-69
2022/04/25 04:00:15;;;;;;;50.78;23.02;;;6.60;99.90;;;7.25;100.00;98164.34;5001460;28;119137;-68
2022/04/25 04:02:43;;;;;;;17.05;10.38;;;6.50;99.90;;;7.16;100.00;98164.34;5000117;28;118735;-67
2022/04/25 04:05:12;;;;;;;14.48;10.30;;;6.50;99.90;;;7.17;100.00;98169.44;4999018;28;129527;-69
2022/04/25 04:07:40;;;;;;;13.93;10.38;;;6.40;99.90;;;7.10;100.00;98158.31;4999040;28;130444;-71
2022/04/25 04:10:11;;;;;;;13.02;9.70;;;6.40;99.90;;;7.25;100.00;98150.84;4997513;28;119836;-69
2022/04/25 04:12:40;;;;;;;13.80;10.10;;;6.50;99.90;;;7.37;100.00;98156.38;4999060;28;120214;-67
2022/04/25 04:15:09;;;;;;;14.13;9.95;;;6.50;99.90;;;7.47;100.00;98160.63;4999362;28;129905;-66
2022/04/25 04:17:38;;;;;;;15.23;10.90;;;6.60;99.90;;;7.53;100.00;98162.81;4998471;28;129487;-67
2022/04/25 04:20:08;;;;;;;14.82;9.93;;;6.70;99.90;;;7.55;100.00;98157.84;5000517;28;118798;-68
2022/04/25 04:22:37;;;;;;;13.52;9.88;;;6.70;99.90;;;7.59;100.00;98165.31;4999019;28;119626;-67
2022/04/25 04:25:08;;;;;;;14.07;9.73;;;6.70;99.90;;;7.51;100.00;98154.25;4998237;28;129835;-66
2022/04/25 04:27:38;;;;;;;12.27;9.55;;;6.70;99.90;;;7.65;100.00;98155.91;4998028;28;129895;-67
2022/04/25 04:30:10;;;;;;;13.32;9.13;;;6.80;99.90;;;7.67;100.00;98153.72;4998570;28;120456;-67
2022/04/25 04:32:40;;;;;;;13.90;10.68;;;6.80;99.90;;;7.76;100.00;98162.56;4999176;28;119171;-67
2022/04/25 04:35:11;;;;;;;13.27;10.57;;;6.90;99.90;;;7.86;100.00;98162.19;5000006;28;129810;-68
2022/04/25 04:37:40;;;;;;;13.82;10.25;;;6.90;99.90;;;7.66;100.00;98162.91;4998125;28;130192;-67
2022/04/25 04:40:29;;;;;;;12.52;9.63;;;6.90;99.90;;;7.79;100.00;98156.50;4998814;28;121460;-67
2022/04/25 04:42:59;;;;;;;14.20;9.45;;;6.90;99.90;;;7.64;100.00;98154.34;5000480;28;122277;-67
2022/04/25 04:45:28;;;;;;;15.27;10.50;;;6.80;99.90;;;7.68;100.00;98147.16;4983102;28;129402;-67
2022/04/25 04:47:57;;;;;;;13.45;10.63;;;6.80;99.90;;;7.61;100.00;98155.00;4999880;28;128706;-66
2022/04/25 04:50:26;;;;;;;14.60;10.77;;;6.80;99.90;;;7.69;100.00;98157.66;5000279;28;119760;-68
2022/04/25 04:52:58;;;;;;;14.55;11.38;;;6.90;99.90;;;7.70;100.00;98158.47;5000304;28;119137;-66
2022/04/25 04:55:27;;;;;;;13.57;10.45;;;6.90;99.90;;;7.84;100.00;98161.72;4997939;28;129992;-67
2022/04/25 04:57:56;;;;;;;10.65;8.85;;;7.00;99.90;;;8.05;100.00;98169.06;4998406;28;130099;-67
2022/04/25 05:00:27;;;;;;;11.43;8.73;;;7.10;99.90;;;8.17;100.00;98176.47;5000549;28;119567;-69
2022/04/25 05:02:55;;;;;;;14.75;9.38;;;7.20;99.90;;;8.25;100.00;98179.09;4998447;28;120195;-69
2022/04/25 05:05:25;;;;;;;12.27;9.15;;;7.20;99.90;;;8.31;100.00;98176.22;4996863;28;129958;-70
2022/04/25 05:07:53;;;;;;;12.57;9.00;;;7.30;99.90;;;8.40;100.00;98180.44;4997874;28;129623;-70
2022/04/25 05:10:28;;;;;;;11.35;8.63;;;7.30;99.90;;;8.46;99.97;98186.47;4999551;28;119216;-67
2022/04/25 05:13:00;;;;;;;12.93;9.10;;;7.40;99.90;;;8.52;99.67;98181.66;5000551;28;119367;-69
2022/04/25 05:15:32;;;;;;;10.25;8.07;;;7.40;99.90;;;8.35;99.19;98177.13;4997728;28;130404;-66
2022/04/25 05:18:00;;;;;;;10.82;8.40;;;7.30;99.90;;;8.26;99.75;98175.28;4998089;28;130066;-66
2022/04/25 05:20:29;;;;;;;12.90;9.10;;;7.20;99.90;;;8.33;99.79;98180.16;4998077;28;119582;-69
2022/04/25 05:22:58;;;;;;;11.23;8.25;;;7.20;99.90;;;8.45;99.68;98184.91;4998328;28;119164;-68
2022/04/25 05:25:28;;;;;;;12.05;8.48;;;7.40;99.90;;;8.52;99.42;98189.78;4997528;28;131022;-68
2022/04/25 05:27:57;;;;;;;12.40;9.55;;;7.40;99.90;;;8.58;99.65;98191.94;4997622;28;130027;-69
2022/04/25 05:30:27;;;;;;;15.20;9.65;;;7.50;99.90;;;8.64;99.34;98185.22;4996441;28;122078;-67
2022/04/25 05:33:02;;;;;;;13.43;9.38;;;7.50;99.90;;;8.75;98.91;98190.25;4997949;28;122718;-68
2022/04/25 05:35:32;;;;;;;12.07;9.68;;;7.50;99.90;;;8.88;98.55;98189.19;4999384;28;129402;-70
2022/04/25 05:38:02;;;;;;;15.55;11.07;;;7.60;99.90;;;8.94;97.84;98193.25;4997852;28;129204;-67
2022/04/25 05:40:31;;;;;;;13.43;10.15;;;7.60;99.90;;;9.05;97.42;98192.84;4997806;28;119703;-68
2022/04/25 05:43:03;;;;;;;14.50;10.20;;;7.80;99.90;;;9.12;97.35;98191.16;4997866;28;119320;-68
2022/04/25 05:45:31;;;;;;;14.95;10.90;;;7.80;99.90;;;9.18;97.04;98197.97;4998862;28;130664;-68
2022/04/25 05:51:58;;;;;;;14.23;9.45;;;7.90;99.90;;;9.12;95.84;98209.34;5016409;28;129470;-69
2022/04/25 05:53:36;;;;;;;15.07;10.38;;;7.80;99.90;;;9.08;96.16;98219.22;4999427;28;119833;-67
2022/04/25 05:56:05;;;;;;;15.13;10.65;;;7.80;99.90;;;9.09;96.37;98215.41;5014754;28;129558;-67
2022/04/25 05:58:33;;;;;;;12.63;9.40;;;7.80;99.90;;;9.12;96.46;98214.75;4997113;28;129907;-68
2022/04/25 06:01:01;;;;;;;12.43;9.68;;;7.80;99.90;;;9.16;96.36;98211.03;5000677;28;121274;-69
2022/04/25 06:03:31;;;;;;;10.80;9.05;;;7.90;99.90;;;9.20;96.05;98216.56;4997410;28;120175;-69
2022/04/25 06:06:00;;;;;;;13.05;9.90;;;7.90;99.90;;;9.13;95.99;98219.84;4997193;28;129743;-67
2022/04/25 06:08:28;;;;;;;13.77;9.25;;;7.80;99.90;;;9.16;95.95;98215.66;4997413;28;130041;-68
2022/04/25 06:10:57;;;;;;;13.82;9.77;;;7.90;99.90;;;9.13;95.66;98210.91;4997243;28;120247;-68
2022/04/25 06:13:25;;;;;;;15.07;11.75;;;7.80;99.90;;;8.72;97.52;98196.31;4994948;28;119413;-68
2022/04/25 06:15:54;;;;;;;16.85;11.90;;;7.60;99.90;;;8.87;97.09;98203.81;4995758;28;129827;-68
2022/04/25 06:18:22;;;;;;;15.48;11.23;;;7.70;99.90;;;8.89;96.86;98185.34;4990669;28;128588;-66
2022/04/25 06:20:52;;;;;;;13.45;10.90;;;7.60;99.90;;;8.44;99.55;98186.78;4988488;28;122547;-69
2022/04/25 06:23:20;;;;;;;16.30;11.00;;;7.60;99.90;;;8.59;99.85;98190.84;4984721;28;122286;-69
2022/04/25 06:25:49;;;;;;;16.13;11.80;;;7.60;99.90;;;8.66;99.66;98186.81;4991698;28;130011;-69
2022/04/25 06:28:18;;;;;;;13.23;10.38;;;7.70;99.90;;;8.78;99.03;98192.28;4979888;28;129984;-68
2022/04/25 06:30:47;;;;;;;18.27;13.55;;;7.70;99.90;;;8.74;99.30;98199.47;4980679;28;119390;-68
2022/04/25 06:33:15;;;;;;;19.98;16.77;;;7.70;99.90;;;9.15;97.72;98192.44;4987539;28;118494;-68
2022/04/25 06:35:44;;;;;;;12.63;9.50;;;8.00;99.90;;;9.44;96.54;98182.56;5000322;28;130497;-71
2022/04/25 06:38:15;;;;;;;12.82;9.77;;;8.20;99.90;;;9.52;96.14;98181.66;4983173;28;130946;-68
2022/04/25 06:40:44;;;;;;;11.98;9.73;;;8.30;99.90;;;9.44;95.15;98177.94;4980921;28;120378;-68
2022/04/25 06:43:13;;;;;;;12.35;9.40;;;8.30;99.90;;;9.65;95.30;98163.53;4980465;28;119680;-69
2022/04/25 06:45:42;;;;;;;12.48;8.38;;;8.40;99.90;;;9.67;94.57;98159.34;4986834;28;129720;-69
2022/04/25 06:48:10;;;;;;;13.02;8.77;;;8.50;33.20;;;9.78;93.58;98158.91;4985778;28;128651;-71
2022/04/25 06:50:39;;;;;;;10.60;8.85;;;8.60;13.70;;;10.03;93.96;98159.69;4988180;28;120000;-68
2022/04/25 06:53:07;;;;;;;11.63;7.85;;;8.70;1.00;;;11.06;90.58;98177.38;5000204;28;119539;-69
2022/04/25 06:55:37;;;;;;;9.65;6.93;;;9.30;23.00;;;11.72;86.10;98183.34;5001581;28;129698;-72
2022/04/25 06:58:06;;;;;;;8.98;7.20;;;9.60;1.00;;;12.13;84.98;98181.22;4999868;28;129453;-71
2022/04/25 07:00:34;;;;;;;9.77;7.20;;;10.00;1.00;;;12.04;81.72;98180.63;5000274;28;119243;-71
2022/04/25 07:03:04;;;;;;;10.65;7.57;;;10.00;1.00;;;12.13;82.28;98177.72;5002383;28;119611;-70
2022/04/25 07:05:32;;;;;;;10.27;7.88;;;9.90;1.00;;;12.99;80.08;98187.69;4999533;28;130695;-72
2022/04/25 07:08:00;;;;;;;8.50;6.35;;;10.40;1.00;;;13.62;77.36;98191.97;4999701;28;129199;-70
2022/04/25 07:10:29;;;;;;;9.23;6.78;;;10.80;1.00;;;13.52;75.94;98189.84;4999058;28;122071;-70
2022/04/25 07:12:59;;;;;;;7.97;6.53;;;10.80;1.00;;;13.71;74.40;98193.66;4999964;28;121826;-69
2022/04/25 07:15:29;;;;;;;7.57;5.78;;;11.00;1.00;;;12.84;75.50;98178.47;4999362;28;130082;-70
2022/04/25 07:17:59;;;;;;;8.32;5.90;;;10.60;1.00;;;12.66;77.18;98183.53;4999447;28;129668;-69
2022/04/25 07:20:27;;;;;;;7.82;5.95;;;10.50;1.00;;;12.25;77.61;98191.22;4999839;28;120109;-68
2022/04/25 07:28:52;;;;;;;7.07;5.88;;;10.50;1.00;;;11.87;78.89;98174.41;4984193;28;129930;-68
2022/04/25 07:31:21;;;;;;;9.48;7.03;;;10.30;1.00;;;12.12;79.20;98173.41;5001208;28;118692;-70
2022/04/25 07:33:49;;;;;;;9.07;7.00;;;10.20;1.00;;;12.51;77.77;98176.19;4999987;28;120042;-69
2022/04/25 07:36:21;;;;;;;8.27;6.43;;;10.40;1.00;;;12.64;76.57;98179.59;4998031;28;129704;-69
2022/04/25 07:38:50;;;;;;;8.32;6.03;;;10.50;1.00;;;13.59;73.22;98184.53;4999772;28;129093;-71
2022/04/25 07:41:18;;;;;;;9.43;6.55;;;11.00;1.00;;;12.92;74.78;98180.16;4999645;28;119732;-70
2022/04/25 07:43:48;;;;;;;9.65;7.35;;;10.90;1.00;;;13.17;73.72;98179.84;4999111;28;119451;-69
2022/04/25 07:46:20;;;;;;;7.93;6.22;;;11.10;1.00;;;14.47;72.11;98176.50;5001934;28;129778;-70
2022/04/25 07:48:48;;;;;;;7.53;5.22;;;11.60;1.00;;;14.60;67.73;98183.34;4999015;28;129706;-69
2022/04/25 07:51:17;;;;;;;7.68;4.95;;;12.00;1.00;;;15.47;66.50;98187.81;4999276;28;119714;-71
2022/04/25 07:53:45;;;;;;;6.78;5.10;;;12.30;1.00;;;15.79;64.02;98182.66;4979999;28;119591;-69
2022/04/25 07:56:13;;;;;;;6.35;4.65;;;12.60;1.00;;;16.06;63.60;98190.66;4979148;28;129693;-71
2022/04/25 07:58:42;;;;;;;6.22;4.70;;;12.70;1.00;;;16.34;62.96;98195.53;4977651;28;129966;-69
2022/04/25 08:01:13;;;;;;;5.60;4.22;;;12.90;1.00;;;15.86;61.22;98186.59;4978153;28;122639;-71
2022/04/25 08:03:42;;;;;;;6.60;5.03;;;12.90;1.00;;;15.75;61.85;98186.50;4979042;28;121489;-69
2022/04/25 08:06:11;;;;;;;5.70;4.35;;;12.70;1.00;;;14.56;64.30;98185.19;4978716;28;131518;-71
2022/04/25 08:08:42;;;;;;;6.18;4.25;;;11.80;1.00;;;13.95;67.18;98196.00;4980584;28;128418;-70
2022/04/25 08:11:11;;;;;;;7.18;5.00;;;11.40;1.00;;;14.19;66.53;98188.56;4977526;28;119593;-70
2022/04/25 08:19:15;;;;;;;8.82;5.45;;;11.50;1.00;;;14.18;68.23;98181.56;4975107;28;129321;-68
2022/04/25 08:21:45;;;;;;;6.85;5.00;;;11.70;1.00;;;13.42;71.33;98172.16;4998801;28;119451;-72
2022/04/25 08:24:14;;;;;;;5.97;4.32;;;11.30;1.00;;;13.18;71.65;98170.53;4997388;28;120241;-70
2022/04/25 08:26:43;;;;;;;6.60;4.70;;;11.10;1.00;;;13.74;71.09;98173.84;4997222;28;129872;-70
2022/04/25 08:29:11;;;;;;;6.95;4.68;;;11.30;1.00;;;12.76;72.99;98171.28;4998188;28;129201;-71
2022/04/25 08:31:41;;;;;;;5.85;4.30;;;11.10;1.00;;;12.62;75.01;98177.25;4997982;28;119675;-72
2022/04/25 08:34:10;;;;;;;6.13;4.53;;;11.00;1.00;;;13.23;74.16;98177.63;4996179;28;119359;-70
2022/04/25 08:36:38;;;;;;;5.70;4.53;;;11.20;1.00;;;13.66;72.26;98173.75;4997792;28;129814;-70
2022/04/25 08:39:07;;;;;;;7.65;4.45;;;11.40;1.00;;;13.95;71.03;98167.97;4998204;28;129513;-71
2022/04/25 08:41:41;;;;;;;6.35;4.55;;;11.60;1.00;;;14.58;68.12;98163.75;4998556;28;119367;-72
2022/04/25 08:44:11;;;;;;;6.63;4.25;;;12.00;1.00;;;13.10;72.70;98164.19;4994557;28;119734;-71
2022/04/25 08:46:44;;;;;;;7.38;4.72;;;11.30;1.00;;;13.17;72.99;98166.25;4998333;28;129785;-72
2022/04/25 08:49:15;;;;;;;7.55;5.30;;;11.30;1.00;;;13.58;73.15;98166.59;4997528;28;129275;-71
2022/04/25 08:51:44;;;;;;;6.50;4.60;;;11.40;1.00;;;13.32;73.61;98175.44;4997372;28;121856;-71
2022/04/25 08:54:13;;;;;;;6.60;4.13;;;11.40;1.00;;;13.95;71.95;98173.41;4998472;28;120649;-73
2022/04/25 08:56:43;;;;;;;6.20;4.65;;;11.70;1.00;;;13.72;71.18;98176.16;4989398;28;130319;-70
2022/04/25 08:59:12;;;;;;;6.40;4.70;;;11.70;1.00;;;13.99;71.27;98171.50;4998158;28;129393;-70
2022/04/25 09:01:42;;;;;;;6.80;5.18;;;11.70;1.00;;;12.66;73.73;98182.75;4998273;28;119512;-70
2022/04/25 09:04:11;;;;;;;5.72;4.60;;;11.10;1.00;;;12.89;74.12;98196.44;4997424;28;119857;-70
2022/04/25 09:06:39;;;;;;;7.18;5.07;;;11.00;1.00;;;12.86;74.10;98199.88;4998061;28;129794;-70
2022/04/25 09:09:08;;;;;;;6.40;5.05;;;11.00;1.00;;;12.36;73.95;98196.88;4998254;28;129526;-71
2022/04/25 09:14:24;;;;;;;6.67;5.47;;;10.90;1.00;;;13.51;72.00;98193.75;4998190;28;120059;-70
2022/04/25 09:16:55;;;;;;;6.97;5.72;;;11.30;1.00;;;13.25;73.20;98192.47;4996401;28;129571;-70
2022/04/25 09:19:23;;;;;;;7.10;5.80;;;11.40;1.00;;;12.62;75.08;98196.28;4995245;28;131237;-70
2022/04/25 09:21:52;;;;;;;7.30;5.47;;;11.10;1.00;;;13.02;74.71;98194.34;4988839;28;119449;-70
2022/04/25 09:24:22;;;;;;;7.80;6.25;;;11.10;1.00;;;12.36;75.55;98199.63;4978236;28;119629;-72
2022/04/25 09:26:53;;;;;;;8.68;6.45;;;11.00;1.00;;;12.20;76.88;98194.19;4977590;28;131331;-70
2022/04/25 09:29:28;;;;;;;8.18;6.18;;;10.90;1.00;;;12.22;76.83;98203.56;4988878;28;129387;-72
2022/04/25 09:31:59;;;;;;;7.72;6.20;;;10.70;1.00;;;12.97;74.25;98205.53;4978186;28;119637;-71
2022/04/25 09:37:16;;;;;;;7.55;5.75;;;11.50;1.00;;;14.55;69.63;98205.44;4977531;28;129831;-72
2022/04/25 09:39:45;;;;;;;7.10;5.47;;;12.10;1.00;;;15.09;66.37;98200.69;4977515;28;129524;-71
2022/04/25 09:42:14;;;;;;;6.47;5.03;;;12.70;1.00;;;15.44;65.31;98205.75;4975334;28;122019;-71
2022/04/25 09:44:58;;;;;;;7.18;5.63;;;12.80;1.00;;;16.04;63.77;98208.66;4979525;28;120875;-72
2022/04/25 09:47:31;;;;;;;6.55;4.72;;;13.20;1.00;;;15.66;63.39;98203.22;4977637;28;129784;-72
2022/04/25 09:50:01;;;;;;;6.47;4.88;;;13.20;1.00;;;14.48;67.96;98205.38;4977415;28;130579;-69
2022/04/25 09:52:31;;;;;;;7.55;5.35;;;12.30;1.00;;;14.62;68.39;98200.13;4977754;28;119576;-72
2022/04/25 09:55:14;;;;;;;6.97;5.57;;;12.20;1.00;;;14.89;66.78;98208.25;4979404;28;118206;-71
2022/04/25 09:57:45;;;;;;;6.68;5.28;;;12.60;1.00;;;15.08;66.73;98205.38;4962466;28;128578;-72
2022/04/25 10:00:28;;;;;;;7.38;5.85;;;12.50;1.00;;;15.27;65.65;98214.56;4976345;28;129762;-71
2022/04/25 10:02:58;;;;;;;7.18;5.65;;;12.70;1.00;;;14.87;67.10;98207.84;4980958;28;119513;-70
2022/04/25 10:05:40;;;;;;;8.27;5.65;;;12.40;1.00;;;14.90;66.88;98205.16;4984087;28;119489;-71
2022/04/25 10:08:10;;;;;;;6.95;5.50;;;12.40;1.00;;;15.53;65.81;98191.00;4981377;28;129442;-71
2022/04/25 10:10:47;;;;;;;7.32;6.07;;;12.80;1.00;;;15.57;63.77;98200.03;4979366;28;129501;-71
2022/04/25 10:13:18;;;;;;;7.10;5.70;;;13.00;1.00;;;15.69;64.53;98205.22;4980819;28;119679;-72
2022/04/25 10:15:48;;;;;;;8.73;5.68;;;12.90;1.00;;;15.86;64.63;98205.75;4981233;28;119359;-71
2022/04/25 10:18:17;;;;;;;6.95;5.63;;;13.10;1.00;;;16.17;63.06;98207.16;4989068;28;129572;-71
2022/04/25 10:20:47;;;;;;;9.10;6.82;;;13.30;1.00;;;16.04;63.08;98206.69;5000427;28;129532;-70
2022/04/25 10:23:18;;;;;;;7.60;6.10;;;13.30;1.00;;;16.79;62.15;98220.06;4986320;28;119306;-72
2022/04/25 10:25:51;;;;;;;7.90;6.15;;;13.70;1.00;;;17.00;60.93;98208.44;5001117;28;119314;-71
2022/04/25 10:28:30;;;;;;;6.80;5.40;;;13.90;1.00;;;15.86;62.63;98213.97;5000056;28;129933;-71
2022/04/25 10:31:05;;;;;;;7.63;5.72;;;13.40;1.00;;;15.70;63.33;98211.47;5002459;28;128932;-71
2022/04/25 10:33:52;;;;;;;7.47;6.10;;;13.00;1.00;;;15.24;64.93;98209.84;4999275;28;122094;-71
2022/04/25 10:36:54;;;;;;;7.47;5.90;;;12.90;1.00;;;15.00;66.44;98202.94;5001991;28;122303;-70
2022/04/25 10:39:24;;;;;;;8.32;6.63;;;12.60;1.00;;;15.22;65.52;98209.41;4938043;28;130196;-72
2022/04/25 10:44:56;;;;;;;7.10;6.03;;;12.90;1.00;;;14.83;67.63;98204.28;4973181;28;118492;-72
2022/04/25 10:47:25;;;;;;;8.75;6.53;;;12.40;1.00;;;14.66;68.48;98209.16;5002084;28;118327;-72
2022/04/25 10:50:08;;;;;;;7.97;6.85;;;12.30;1.00;;;14.69;68.52;98216.63;4999789;28;131686;-72
2022/04/25 10:52:54;;;;;;;7.43;6.25;;;12.50;1.00;;;14.48;68.76;98217.06;5000198;28;130062;-75
2022/04/25 10:55:33;;;;;;;9.30;6.70;;;12.40;1.00;;;14.97;68.44;98220.84;5000496;28;120497;-70